Hauptseite
METAR-TAF:

METAR-TAF

Flughäfen :

Flughafen Basel-Mülhausen

Basel-Mülhausen, Frankreich

Breite: 47-36N, Länge: 007-31E, Höhe: 270 m

Beobachtung

Neuester Wetterbericht von vor 13 Minuten, um 14:00 UTC
Wind 9 kt aus Süd/Südost
Temperatur 7°C
Luftfeuchtigkeit 66%
Luftdruck 1022 hPa
Sichtweite 10 km oder mehr
keine Wolken unter 1500 m und keine Kumulonimbus oder Gewitterwolken

METAR: LFSB 241400Z 16009KT CAVOK 07/01 Q1022 NOSIG

Zeit: 15:13 (14:13 UTC)

Prognose

Neuester Wetterbericht von vor 3 Stunden und 13 Minuten, um 11:00 UTC
Gültige Prognose vom 24 um 12 UTC bis 25 um 12 UTC
Wind 6 kt aus Süd/Südost
Sichtweite: 9000 m
Wahrscheinlichkeit 30%
vom 24 um 22 UTC bis 25 um 09 UTC
Sichtweite: 4000 m
Aufgelockert bewölkt in der Höhe von 500 ft
feuchter Dunst

TAF: LFSB 241100Z 2412/2512 16006KT 9000 NSC PROB30 2422/2509 4000 BR SCT005

Wetterbeobachtungen und Prognosen von mehr als 4000 Flughäfen (METAR und TAF Bericht).

Die verfügbaren Stationen werden durch gelbe und rote Markierungen auf der Karte dargestellt.

Führen Sie die Maus auf sie, um den Namen der Station zu sehen.

Darauf klicken, um die Beobachtung von Wetterbeobachtungen und Prognosen zu sehen.

Um die Karte zu ändern : klicken Sie auf den grünen Tasten mit einem schwarzen Kreuz Zum Vergrößern, auf den grünen Button mit einem Gedankenstrich zu verkleinern, oder auf die grünen Pfeile für benachbarte Karten.


METAR-TAF: